sensor_id;sensor_type;location;lat;lon;timestamp;pressure;altitude;pressure_sealevel;temperature;humidity
67517;BME280;54359;59.124;37.910;2023-02-12T00:01:33;99140.72;;;-4.34;81.71
67517;BME280;54359;59.124;37.910;2023-02-12T00:04:07;99153.06;;;-4.37;81.01
67517;BME280;54359;59.124;37.910;2023-02-12T00:06:34;99145.53;;;-4.37;81.72
67517;BME280;54359;59.124;37.910;2023-02-12T00:09:00;99151.34;;;-4.38;81.52
67517;BME280;54359;59.124;37.910;2023-02-12T00:11:27;99157.13;;;-4.39;81.26
67517;BME280;54359;59.124;37.910;2023-02-12T00:13:54;99151.28;;;-4.55;82.18
67517;BME280;54359;59.124;37.910;2023-02-12T00:16:25;99149.72;;;-4.53;81.28
67517;BME280;54359;59.124;37.910;2023-02-12T00:18:52;99160.59;;;-4.52;81.29
67517;BME280;54359;59.124;37.910;2023-02-12T00:21:19;99166.06;;;-4.59;81.28
67517;BME280;54359;59.124;37.910;2023-02-12T00:23:45;99169.69;;;-4.54;81.54
67517;BME280;54359;59.124;37.910;2023-02-12T00:26:13;99166.06;;;-4.59;81.48
67517;BME280;54359;59.124;37.910;2023-02-12T00:28:45;99186.97;;;-4.59;81.38
67517;BME280;54359;59.124;37.910;2023-02-12T00:31:15;99186.88;;;-4.60;81.50
67517;BME280;54359;59.124;37.910;2023-02-12T00:33:41;99178.66;;;-4.58;81.52
67517;BME280;54359;59.124;37.910;2023-02-12T00:36:13;99178.59;;;-4.59;81.48
67517;BME280;54359;59.124;37.910;2023-02-12T00:38:41;99185.16;;;-4.61;81.77
67517;BME280;54359;59.124;37.910;2023-02-12T00:41:10;99183.53;;;-4.61;81.35
67517;BME280;54359;59.124;37.910;2023-02-12T00:43:36;99187.38;;;-4.66;81.93
67517;BME280;54359;59.124;37.910;2023-02-12T00:46:02;99194.66;;;-4.71;81.18
67517;BME280;54359;59.124;37.910;2023-02-12T00:48:30;99185.06;;;-4.78;81.18
67517;BME280;54359;59.124;37.910;2023-02-12T00:50:55;99198.72;;;-4.73;81.31
67517;BME280;54359;59.124;37.910;2023-02-12T00:53:21;99194.91;;;-4.81;81.19
67517;BME280;54359;59.124;37.910;2023-02-12T00:55:48;99202.41;;;-4.81;81.00
67517;BME280;54359;59.124;37.910;2023-02-12T00:58:14;99212.88;;;-4.88;81.51
67517;BME280;54359;59.124;37.910;2023-02-12T01:00:41;99201.53;;;-4.96;81.00
67517;BME280;54359;59.124;37.910;2023-02-12T01:03:07;99212.16;;;-5.00;81.50
67517;BME280;54359;59.124;37.910;2023-02-12T01:05:33;99226.72;;;-5.08;80.95
67517;BME280;54359;59.124;37.910;2023-02-12T01:07:59;99214.69;;;-5.14;80.92
67517;BME280;54359;59.124;37.910;2023-02-12T01:10:26;99219.91;;;-5.24;80.81
67517;BME280;54359;59.124;37.910;2023-02-12T01:12:53;99243.63;;;-5.19;81.50
67517;BME280;54359;59.124;37.910;2023-02-12T01:15:20;99239.78;;;-5.27;80.88
67517;BME280;54359;59.124;37.910;2023-02-12T01:17:46;99253.06;;;-5.28;81.62
67517;BME280;54359;59.124;37.910;2023-02-12T01:20:14;99252.78;;;-5.33;80.91
67517;BME280;54359;59.124;37.910;2023-02-12T01:22:44;99250.28;;;-5.46;81.71
67517;BME280;54359;59.124;37.910;2023-02-12T01:25:11;99264.56;;;-5.45;81.34
67517;BME280;54359;59.124;37.910;2023-02-12T01:27:38;99272.75;;;-5.48;80.45
67517;BME280;54359;59.124;37.910;2023-02-12T01:30:08;99277.97;;;-5.58;81.46
67517;BME280;54359;59.124;37.910;2023-02-12T01:32:34;99290.75;;;-5.53;81.38
67517;BME280;54359;59.124;37.910;2023-02-12T01:35:01;99287.75;;;-5.61;81.88
67517;BME280;54359;59.124;37.910;2023-02-12T01:37:29;99289.50;;;-5.60;81.60
67517;BME280;54359;59.124;37.910;2023-02-12T01:39:55;99314.63;;;-5.45;81.90
67517;BME280;54359;59.124;37.910;2023-02-12T01:42:21;99282.19;;;-5.57;81.78
67517;BME280;54359;59.124;37.910;2023-02-12T01:47:43;99308.84;;;-5.44;81.80
67517;BME280;54359;59.124;37.910;2023-02-12T01:50:12;99322.91;;;-5.46;81.64
67517;BME280;54359;59.124;37.910;2023-02-12T01:52:45;99321.88;;;-5.50;81.44
67517;BME280;54359;59.124;37.910;2023-02-12T01:55:12;99332.53;;;-5.52;81.27
67517;BME280;54359;59.124;37.910;2023-02-12T01:57:41;99324.16;;;-5.53;81.32
67517;BME280;54359;59.124;37.910;2023-02-12T02:00:12;99341.41;;;-5.44;81.24
67517;BME280;54359;59.124;37.910;2023-02-12T02:02:42;99317.22;;;-5.57;81.04
67517;BME280;54359;59.124;37.910;2023-02-12T02:05:19;99335.72;;;-5.55;81.26
67517;BME280;54359;59.124;37.910;2023-02-12T02:07:48;99340.53;;;-5.58;81.11
67517;BME280;54359;59.124;37.910;2023-02-12T02:10:14;99343.41;;;-5.65;80.61
67517;BME280;54359;59.124;37.910;2023-02-12T02:12:40;99349.28;;;-5.78;80.84
67517;BME280;54359;59.124;37.910;2023-02-12T02:15:25;99343.66;;;-5.87;80.83
67517;BME280;54359;59.124;37.910;2023-02-12T02:31:43;99403.72;;;-5.87;81.69
67517;BME280;54359;59.124;37.910;2023-02-12T02:36:43;99417.19;;;-5.85;81.12
67517;BME280;54359;59.124;37.910;2023-02-12T02:39:21;99412.31;;;-5.97;81.77
67517;BME280;54359;59.124;37.910;2023-02-12T02:42:00;99422.31;;;-5.97;81.35
67517;BME280;54359;59.124;37.910;2023-02-12T02:44:41;99424.72;;;-5.98;82.08
67517;BME280;54359;59.124;37.910;2023-02-12T02:47:11;99410.53;;;-6.11;81.90
67517;BME280;54359;59.124;37.910;2023-02-12T02:49:46;99425.38;;;-6.01;82.29
67517;BME280;54359;59.124;37.910;2023-02-12T02:52:22;99433.84;;;-5.99;81.45
67517;BME280;54359;59.124;37.910;2023-02-12T02:54:52;99434.81;;;-5.97;82.05
67517;BME280;54359;59.124;37.910;2023-02-12T02:57:30;99430.84;;;-5.93;82.35
67517;BME280;54359;59.124;37.910;2023-02-12T03:00:06;99441.81;;;-5.91;80.94
67517;BME280;54359;59.124;37.910;2023-02-12T03:02:39;99445.09;;;-5.92;80.56
67517;BME280;54359;59.124;37.910;2023-02-12T03:05:24;99453.34;;;-5.93;82.16
67517;BME280;54359;59.124;37.910;2023-02-12T03:08:08;99445.47;;;-5.99;81.32
67517;BME280;54359;59.124;37.910;2023-02-12T03:10:42;99463.22;;;-5.96;80.79
67517;BME280;54359;59.124;37.910;2023-02-12T03:13:13;99466.56;;;-5.96;81.63
67517;BME280;54359;59.124;37.910;2023-02-12T03:15:42;99474.28;;;-5.93;81.35
67517;BME280;54359;59.124;37.910;2023-02-12T03:18:16;99479.47;;;-5.90;81.87
67517;BME280;54359;59.124;37.910;2023-02-12T03:20:47;99475.31;;;-5.89;82.20
67517;BME280;54359;59.124;37.910;2023-02-12T03:23:21;99476.56;;;-5.96;81.11
67517;BME280;54359;59.124;37.910;2023-02-12T03:26:11;99486.66;;;-5.94;81.67
67517;BME280;54359;59.124;37.910;2023-02-12T03:28:42;99472.50;;;-6.07;80.92
67517;BME280;54359;59.124;37.910;2023-02-12T03:34:24;99503.50;;;-6.05;81.32
67517;BME280;54359;59.124;37.910;2023-02-12T03:36:59;99501.00;;;-6.17;81.29
67517;BME280;54359;59.124;37.910;2023-02-12T03:39:37;99510.47;;;-6.13;81.55
67517;BME280;54359;59.124;37.910;2023-02-12T03:42:13;99510.47;;;-6.13;80.85
67517;BME280;54359;59.124;37.910;2023-02-12T03:44:56;99512.19;;;-6.12;81.11
67517;BME280;54359;59.124;37.910;2023-02-12T03:50:28;99513.09;;;-6.11;81.62
67517;BME280;54359;59.124;37.910;2023-02-12T03:52:57;99527.44;;;-6.09;81.42
67517;BME280;54359;59.124;37.910;2023-02-12T03:55:23;99526.56;;;-6.09;80.48
67517;BME280;54359;59.124;37.910;2023-02-12T03:57:56;99526.66;;;-6.08;81.15
67517;BME280;54359;59.124;37.910;2023-02-12T04:00:25;99535.91;;;-6.07;80.91
67517;BME280;54359;59.124;37.910;2023-02-12T04:02:52;99530.13;;;-6.05;81.12
67517;BME280;54359;59.124;37.910;2023-02-12T04:05:21;99525.03;;;-6.07;81.49
67517;BME280;54359;59.124;37.910;2023-02-12T04:07:48;99549.69;;;-6.00;81.86
67517;BME280;54359;59.124;37.910;2023-02-12T04:10:15;99541.63;;;-5.96;81.51
67517;BME280;54359;59.124;37.910;2023-02-12T04:12:51;99539.53;;;-5.90;81.27
67517;BME280;54359;59.124;37.910;2023-02-12T04:15:41;99548.22;;;-5.84;81.87
67517;BME280;54359;59.124;37.910;2023-02-12T04:18:23;99556.78;;;-5.81;81.60
67517;BME280;54359;59.124;37.910;2023-02-12T04:20:57;99559.50;;;-5.78;81.13
67517;BME280;54359;59.124;37.910;2023-02-12T04:26:44;99562.13;;;-5.76;81.42
67517;BME280;54359;59.124;37.910;2023-02-12T04:29:22;99576.66;;;-5.71;81.10
67517;BME280;54359;59.124;37.910;2023-02-12T04:32:15;99587.47;;;-5.72;81.31
67517;BME280;54359;59.124;37.910;2023-02-12T04:40:33;99602.91;;;-5.77;80.62
67517;BME280;54359;59.124;37.910;2023-02-12T04:42:59;99600.78;;;-5.84;80.60
67517;BME280;54359;59.124;37.910;2023-02-12T04:45:28;99618.81;;;-5.77;80.68
67517;BME280;54359;59.124;37.910;2023-02-12T04:47:54;99619.69;;;-5.76;80.82
67517;BME280;54359;59.124;37.910;2023-02-12T04:50:21;99622.50;;;-5.72;81.38
67517;BME280;54359;59.124;37.910;2023-02-12T04:52:47;99613.25;;;-5.73;81.14
67517;BME280;54359;59.124;37.910;2023-02-12T04:55:14;99620.88;;;-5.71;81.28
67517;BME280;54359;59.124;37.910;2023-02-12T04:57:42;99626.28;;;-5.65;81.00
67517;BME280;54359;59.124;37.910;2023-02-12T05:00:10;99623.91;;;-5.63;80.68
67517;BME280;54359;59.124;37.910;2023-02-12T05:02:36;99627.25;;;-5.63;80.88
67517;BME280;54359;59.124;37.910;2023-02-12T05:05:02;99634.66;;;-5.64;81.39
67517;BME280;54359;59.124;37.910;2023-02-12T05:07:28;99647.41;;;-5.61;81.06
67517;BME280;54359;59.124;37.910;2023-02-12T05:09:54;99641.13;;;-5.68;81.52
67517;BME280;54359;59.124;37.910;2023-02-12T05:12:20;99652.44;;;-5.73;80.51
67517;BME280;54359;59.124;37.910;2023-02-12T05:14:46;99639.19;;;-5.84;81.71
67517;BME280;54359;59.124;37.910;2023-02-12T05:17:11;99655.38;;;-5.79;80.66
67517;BME280;54359;59.124;37.910;2023-02-12T05:19:37;99655.16;;;-5.82;81.06
67517;BME280;54359;59.124;37.910;2023-02-12T05:22:03;99661.28;;;-5.78;81.25
67517;BME280;54359;59.124;37.910;2023-02-12T05:24:29;99673.66;;;-5.80;81.55
67517;BME280;54359;59.124;37.910;2023-02-12T05:26:54;99684.53;;;-5.79;81.75
67517;BME280;54359;59.124;37.910;2023-02-12T05:29:20;99672.88;;;-5.79;80.28
67517;BME280;54359;59.124;37.910;2023-02-12T05:31:46;99697.59;;;-5.83;81.45
67517;BME280;54359;59.124;37.910;2023-02-12T05:34:12;99674.53;;;-5.91;81.51
67517;BME280;54359;59.124;37.910;2023-02-12T05:36:39;99691.84;;;-5.82;81.00
67517;BME280;54359;59.124;37.910;2023-02-12T05:39:06;99679.00;;;-5.87;81.38
67517;BME280;54359;59.124;37.910;2023-02-12T05:41:33;99681.38;;;-5.77;81.03
67517;BME280;54359;59.124;37.910;2023-02-12T05:44:04;99699.56;;;-5.68;81.31
67517;BME280;54359;59.124;37.910;2023-02-12T05:46:31;99688.13;;;-5.76;80.62
67517;BME280;54359;59.124;37.910;2023-02-12T05:48:57;99702.06;;;-5.68;80.58
67517;BME280;54359;59.124;37.910;2023-02-12T05:51:24;99713.91;;;-5.65;81.02
67517;BME280;54359;59.124;37.910;2023-02-12T05:53:54;99711.84;;;-5.59;81.63
67517;BME280;54359;59.124;37.910;2023-02-12T05:56:23;99705.84;;;-5.61;80.67
67517;BME280;54359;59.124;37.910;2023-02-12T05:59:20;99718.50;;;-5.59;81.01
67517;BME280;54359;59.124;37.910;2023-02-12T06:01:47;99720.88;;;-5.61;80.95
67517;BME280;54359;59.124;37.910;2023-02-12T06:04:19;99722.19;;;-5.66;80.90
67517;BME280;54359;59.124;37.910;2023-02-12T06:06:45;99719.69;;;-5.66;80.31
67517;BME280;54359;59.124;37.910;2023-02-12T06:09:12;99731.88;;;-5.59;81.09
67517;BME280;54359;59.124;37.910;2023-02-12T06:11:39;99726.44;;;-5.65;80.31
67517;BME280;54359;59.124;37.910;2023-02-12T06:14:07;99736.44;;;-5.53;80.49
67517;BME280;54359;59.124;37.910;2023-02-12T06:16:33;99735.78;;;-5.51;80.94
67517;BME280;54359;59.124;37.910;2023-02-12T06:19:04;99743.59;;;-5.46;81.36
67517;BME280;54359;59.124;37.910;2023-02-12T06:21:31;99743.16;;;-5.40;80.94
67517;BME280;54359;59.124;37.910;2023-02-12T06:23:57;99735.47;;;-5.43;80.69
67517;BME280;54359;59.124;37.910;2023-02-12T06:26:24;99752.53;;;-5.38;81.16
67517;BME280;54359;59.124;37.910;2023-02-12T06:28:50;99751.88;;;-5.35;81.34
67517;BME280;54359;59.124;37.910;2023-02-12T06:31:23;99757.97;;;-5.32;80.89
67517;BME280;54359;59.124;37.910;2023-02-12T06:33:51;99740.75;;;-5.27;80.83
67517;BME280;54359;59.124;37.910;2023-02-12T06:36:19;99725.50;;;-5.30;81.02
67517;BME280;54359;59.124;37.910;2023-02-12T06:38:47;99723.66;;;-5.33;81.54
67517;BME280;54359;59.124;37.910;2023-02-12T06:41:17;99752.69;;;-5.11;80.93
67517;BME280;54359;59.124;37.910;2023-02-12T06:43:44;99734.09;;;-5.15;80.62
67517;BME280;54359;59.124;37.910;2023-02-12T06:46:10;99747.78;;;-5.10;80.44
67517;BME280;54359;59.124;37.910;2023-02-12T06:48:37;99756.50;;;-5.04;80.43
67517;BME280;54359;59.124;37.910;2023-02-12T06:51:15;99742.91;;;-5.20;79.98
67517;BME280;54359;59.124;37.910;2023-02-12T06:53:43;99756.31;;;-5.19;80.39
67517;BME280;54359;59.124;37.910;2023-02-12T06:56:12;99747.63;;;-5.36;80.20
67517;BME280;54359;59.124;37.910;2023-02-12T06:58:40;99751.84;;;-5.23;80.09
67517;BME280;54359;59.124;37.910;2023-02-12T07:01:20;99784.75;;;-5.31;80.54
67517;BME280;54359;59.124;37.910;2023-02-12T07:04:01;99767.66;;;-5.36;80.47
67517;BME280;54359;59.124;37.910;2023-02-12T07:06:32;99769.75;;;-5.31;80.94
67517;BME280;54359;59.124;37.910;2023-02-12T07:09:00;99774.31;;;-5.25;80.33
67517;BME280;54359;59.124;37.910;2023-02-12T07:11:33;99802.06;;;-5.10;80.55
67517;BME280;54359;59.124;37.910;2023-02-12T07:13:59;99782.00;;;-5.10;80.91
67517;BME280;54359;59.124;37.910;2023-02-12T07:16:25;99792.56;;;-5.02;80.84
67517;BME280;54359;59.124;37.910;2023-02-12T07:18:52;99800.16;;;-4.89;80.41
67517;BME280;54359;59.124;37.910;2023-02-12T07:21:26;99817.25;;;-4.83;80.42
67517;BME280;54359;59.124;37.910;2023-02-12T07:24:19;99786.47;;;-5.06;80.39
67517;BME280;54359;59.124;37.910;2023-02-12T07:26:46;99815.41;;;-4.86;80.40
67517;BME280;54359;59.124;37.910;2023-02-12T07:29:12;99792.09;;;-4.97;80.79
67517;BME280;54359;59.124;37.910;2023-02-12T07:31:40;99787.31;;;-4.94;80.35
67517;BME280;54359;59.124;37.910;2023-02-12T07:34:06;99798.19;;;-4.93;80.36
67517;BME280;54359;59.124;37.910;2023-02-12T07:36:34;99793.72;;;-4.86;81.13
67517;BME280;54359;59.124;37.910;2023-02-12T07:39:11;99834.09;;;-4.57;80.59
67517;BME280;54359;59.124;37.910;2023-02-12T07:41:44;99840.72;;;-4.58;80.30
67517;BME280;54359;59.124;37.910;2023-02-12T07:44:25;99825.91;;;-4.67;80.40
67517;BME280;54359;59.124;37.910;2023-02-12T07:46:52;99808.19;;;-4.81;80.57
67517;BME280;54359;59.124;37.910;2023-02-12T07:49:21;99837.22;;;-4.60;80.54
67517;BME280;54359;59.124;37.910;2023-02-12T07:51:59;99848.25;;;-4.58;80.77
67517;BME280;54359;59.124;37.910;2023-02-12T07:54:26;99849.56;;;-4.51;81.04
67517;BME280;54359;59.124;37.910;2023-02-12T07:56:57;99795.00;;;-4.79;80.89
67517;BME280;54359;59.124;37.910;2023-02-12T07:59:27;99855.19;;;-4.42;80.13
67517;BME280;54359;59.124;37.910;2023-02-12T08:01:53;99856.66;;;-4.32;81.09
67517;BME280;54359;59.124;37.910;2023-02-12T08:04:23;99824.25;;;-4.54;80.58
67517;BME280;54359;59.124;37.910;2023-02-12T08:06:52;99864.06;;;-4.22;80.79
67517;BME280;54359;59.124;37.910;2023-02-12T08:09:26;99880.59;;;-4.12;81.06
67517;BME280;54359;59.124;37.910;2023-02-12T08:11:55;99864.66;;;-4.13;80.79
67517;BME280;54359;59.124;37.910;2023-02-12T08:14:23;99884.69;;;-4.01;80.65
67517;BME280;54359;59.124;37.910;2023-02-12T08:16:52;99846.47;;;-4.22;80.51
67517;BME280;54359;59.124;37.910;2023-02-12T08:19:19;99850.72;;;-4.21;80.69
67517;BME280;54359;59.124;37.910;2023-02-12T08:21:50;99864.00;;;-4.10;80.34
67517;BME280;54359;59.124;37.910;2023-02-12T08:24:20;99860.19;;;-4.17;80.72
67517;BME280;54359;59.124;37.910;2023-02-12T08:26:56;99879.47;;;-4.04;80.34
67517;BME280;54359;59.124;37.910;2023-02-12T08:29:32;99885.53;;;-4.00;80.49
67517;BME280;54359;59.124;37.910;2023-02-12T08:32:00;99864.09;;;-4.09;80.31
67517;BME280;54359;59.124;37.910;2023-02-12T08:34:30;99886.06;;;-3.93;80.91
67517;BME280;54359;59.124;37.910;2023-02-12T08:36:59;99876.31;;;-3.88;80.40
67517;BME280;54359;59.124;37.910;2023-02-12T08:39:32;99846.28;;;-4.00;80.45
67517;BME280;54359;59.124;37.910;2023-02-12T08:42:05;99893.56;;;-3.68;80.54
67517;BME280;54359;59.124;37.910;2023-02-12T08:44:36;99886.34;;;-3.63;80.72
67517;BME280;54359;59.124;37.910;2023-02-12T08:47:09;99871.50;;;-3.47;80.04
67517;BME280;54359;59.124;37.910;2023-02-12T08:49:36;99871.16;;;-3.51;80.72
67517;BME280;54359;59.124;37.910;2023-02-12T08:52:02;99872.03;;;-3.64;79.66
67517;BME280;54359;59.124;37.910;2023-02-12T08:54:41;99900.84;;;-3.59;80.17
67517;BME280;54359;59.124;37.910;2023-02-12T08:57:10;99899.25;;;-3.70;79.74
67517;BME280;54359;59.124;37.910;2023-02-12T08:59:48;99878.47;;;-3.81;80.29
67517;BME280;54359;59.124;37.910;2023-02-12T09:02:40;99904.13;;;-3.60;80.38
67517;BME280;54359;59.124;37.910;2023-02-12T09:05:11;99908.69;;;-3.54;79.98
67517;BME280;54359;59.124;37.910;2023-02-12T09:07:38;99884.19;;;-3.70;79.87
67517;BME280;54359;59.124;37.910;2023-02-12T09:10:06;99888.13;;;-3.74;80.28
67517;BME280;54359;59.124;37.910;2023-02-12T09:12:32;99904.28;;;-3.70;79.55
67517;BME280;54359;59.124;37.910;2023-02-12T09:14:59;99919.56;;;-3.67;79.36
67517;BME280;54359;59.124;37.910;2023-02-12T09:17:30;99923.69;;;-3.68;80.58
67517;BME280;54359;59.124;37.910;2023-02-12T09:19:57;99887.84;;;-3.78;80.18
67517;BME280;54359;59.124;37.910;2023-02-12T09:22:23;99885.63;;;-3.74;80.30
67517;BME280;54359;59.124;37.910;2023-02-12T09:24:49;99926.94;;;-3.44;80.27
67517;BME280;54359;59.124;37.910;2023-02-12T09:27:15;99906.75;;;-3.45;80.32
67517;BME280;54359;59.124;37.910;2023-02-12T09:29:41;99898.94;;;-3.36;80.42
67517;BME280;54359;59.124;37.910;2023-02-12T09:32:07;99913.75;;;-3.14;80.41
67517;BME280;54359;59.124;37.910;2023-02-12T09:34:34;99876.22;;;-3.25;80.21
67517;BME280;54359;59.124;37.910;2023-02-12T09:37:00;99881.94;;;-3.27;79.85
67517;BME280;54359;59.124;37.910;2023-02-12T09:39:26;99900.78;;;-3.34;79.49
67517;BME280;54359;59.124;37.910;2023-02-12T09:47:43;99951.06;;;-3.20;79.32
67517;BME280;54359;59.124;37.910;2023-02-12T09:50:54;99960.41;;;-3.31;79.03
67517;BME280;54359;59.124;37.910;2023-02-12T09:53:30;99943.56;;;-3.46;79.06
67517;BME280;54359;59.124;37.910;2023-02-12T09:56:00;99949.63;;;-3.55;78.90
67517;BME280;54359;59.124;37.910;2023-02-12T09:58:33;99962.56;;;-3.62;79.25
67517;BME280;54359;59.124;37.910;2023-02-12T10:01:09;99986.03;;;-3.62;79.19
67517;BME280;54359;59.124;37.910;2023-02-12T10:03:36;99989.22;;;-3.65;79.12
67517;BME280;54359;59.124;37.910;2023-02-12T10:06:24;99969.19;;;-3.76;79.55
67517;BME280;54359;59.124;37.910;2023-02-12T10:09:09;99987.00;;;-3.60;79.48
67517;BME280;54359;59.124;37.910;2023-02-12T10:12:11;99976.81;;;-3.50;79.21
67517;BME280;54359;59.124;37.910;2023-02-12T10:17:39;99956.75;;;-3.23;80.24
67517;BME280;54359;59.124;37.910;2023-02-12T10:26:24;99936.84;;;-3.07;79.10
67517;BME280;54359;59.124;37.910;2023-02-12T10:28:52;99977.09;;;-2.80;79.64
67517;BME280;54359;59.124;37.910;2023-02-12T10:31:31;99974.00;;;-2.76;79.44
67517;BME280;54359;59.124;37.910;2023-02-12T10:34:11;99969.00;;;-2.63;80.18
67517;BME280;54359;59.124;37.910;2023-02-12T10:36:43;99961.53;;;-2.48;80.29
67517;BME280;54359;59.124;37.910;2023-02-12T10:41:42;99976.59;;;-1.93;79.69
67517;BME280;54359;59.124;37.910;2023-02-12T10:44:13;99963.44;;;-1.74;79.78
67517;BME280;54359;59.124;37.910;2023-02-12T10:46:44;99977.22;;;-1.54;79.03
67517;BME280;54359;59.124;37.910;2023-02-12T10:49:29;99971.50;;;-1.36;79.31
67517;BME280;54359;59.124;37.910;2023-02-12T10:55:32;99980.81;;;-1.20;78.77
67517;BME280;54359;59.124;37.910;2023-02-12T10:58:04;99985.66;;;-1.24;78.98
67517;BME280;54359;59.124;37.910;2023-02-12T11:00:43;99970.53;;;-1.24;78.81
67517;BME280;54359;59.124;37.910;2023-02-12T11:05:41;99989.97;;;-0.15;79.67
67517;BME280;54359;59.124;37.910;2023-02-12T11:08:35;99986.38;;;0.12;78.45
67517;BME280;54359;59.124;37.910;2023-02-12T11:13:36;99982.28;;;0.31;77.03
67517;BME280;54359;59.124;37.910;2023-02-12T11:16:12;99969.53;;;0.29;77.00
67517;BME280;54359;59.124;37.910;2023-02-12T11:19:02;100005.97;;;0.49;77.34
67517;BME280;54359;59.124;37.910;2023-02-12T11:21:33;99979.31;;;0.56;77.50
67517;BME280;54359;59.124;37.910;2023-02-12T11:26:46;99997.44;;;1.16;77.17
67517;BME280;54359;59.124;37.910;2023-02-12T11:29:21;99990.16;;;1.40;76.79
67517;BME280;54359;59.124;37.910;2023-02-12T11:32:06;99991.09;;;1.60;76.69
67517;BME280;54359;59.124;37.910;2023-02-12T11:34:38;100004.66;;;2.17;76.69
67517;BME280;54359;59.124;37.910;2023-02-12T11:37:13;99987.88;;;2.60;77.37
67517;BME280;54359;59.124;37.910;2023-02-12T11:39:46;99986.34;;;3.04;77.06
67517;BME280;54359;59.124;37.910;2023-02-12T11:42:17;100006.34;;;3.38;76.26
67517;BME280;54359;59.124;37.910;2023-02-12T11:45:03;99982.75;;;3.63;75.57
67517;BME280;54359;59.124;37.910;2023-02-12T11:47:31;100008.97;;;4.08;76.04
67517;BME280;54359;59.124;37.910;2023-02-12T11:50:23;100003.63;;;4.48;75.58
67517;BME280;54359;59.124;37.910;2023-02-12T11:52:57;99999.41;;;4.73;75.55
67517;BME280;54359;59.124;37.910;2023-02-12T11:55:30;100009.13;;;4.84;74.72
67517;BME280;54359;59.124;37.910;2023-02-12T12:09:23;100021.59;;;4.53;74.55
67517;BME280;54359;59.124;37.910;2023-02-12T12:12:15;100019.88;;;4.28;73.77
67517;BME280;54359;59.124;37.910;2023-02-12T12:14:58;100025.97;;;4.09;75.62
67517;BME280;54359;59.124;37.910;2023-02-12T12:17:59;100015.84;;;4.34;75.39
67517;BME280;54359;59.124;37.910;2023-02-12T12:20:59;100009.78;;;4.79;75.63
67517;BME280;54359;59.124;37.910;2023-02-12T12:23:37;100018.78;;;5.19;75.28
67517;BME280;54359;59.124;37.910;2023-02-12T12:26:29;100024.06;;;5.52;75.48
67517;BME280;54359;59.124;37.910;2023-02-12T12:29:21;100017.19;;;5.77;73.75
67517;BME280;54359;59.124;37.910;2023-02-12T12:32:15;100029.16;;;5.79;74.29
67517;BME280;54359;59.124;37.910;2023-02-12T12:35:10;100018.78;;;5.73;73.57
67517;BME280;54359;59.124;37.910;2023-02-12T12:38:21;100022.81;;;5.67;73.38
67517;BME280;54359;59.124;37.910;2023-02-12T12:55:14;100041.97;;;5.81;73.27
67517;BME280;54359;59.124;37.910;2023-02-12T12:58:05;100031.75;;;5.81;73.34
67517;BME280;54359;59.124;37.910;2023-02-12T13:04:02;100055.09;;;5.39;72.64
67517;BME280;54359;59.124;37.910;2023-02-12T13:13:17;100058.88;;;4.75;72.79
67517;BME280;54359;59.124;37.910;2023-02-12T13:18:57;100067.56;;;4.56;73.18
67517;BME280;54359;59.124;37.910;2023-02-12T13:27:25;100068.84;;;4.22;72.30
67517;BME280;54359;59.124;37.910;2023-02-12T13:29:58;100067.88;;;4.18;72.36
67517;BME280;54359;59.124;37.910;2023-02-12T13:33:12;100078.16;;;3.99;72.76
67517;BME280;54359;59.124;37.910;2023-02-12T13:35:44;100068.28;;;3.84;72.84
67517;BME280;54359;59.124;37.910;2023-02-12T13:38:19;100042.72;;;3.81;72.91
67517;BME280;54359;59.124;37.910;2023-02-12T13:40:51;100064.44;;;3.73;72.24
67517;BME280;54359;59.124;37.910;2023-02-12T13:43:35;100068.53;;;2.87;71.81
67517;BME280;54359;59.124;37.910;2023-02-12T13:49:42;100074.56;;;0.55;73.90
67517;BME280;54359;59.124;37.910;2023-02-12T13:52:22;100054.63;;;-0.34;74.43
67517;BME280;54359;59.124;37.910;2023-02-12T13:55:29;100082.72;;;-0.74;74.72
67517;BME280;54359;59.124;37.910;2023-02-12T14:01:05;100088.47;;;-1.76;75.32
67517;BME280;54359;59.124;37.910;2023-02-12T14:03:37;100083.84;;;-2.10;74.86
67517;BME280;54359;59.124;37.910;2023-02-12T14:08:41;100084.72;;;-2.63;75.09
67517;BME280;54359;59.124;37.910;2023-02-12T14:11:15;100090.63;;;-3.00;74.06
67517;BME280;54359;59.124;37.910;2023-02-12T14:14:00;100089.41;;;-3.44;74.26
67517;BME280;54359;59.124;37.910;2023-02-12T14:16:54;100092.91;;;-3.91;74.48
67517;BME280;54359;59.124;37.910;2023-02-12T14:19:37;100083.69;;;-4.27;74.78
67517;BME280;54359;59.124;37.910;2023-02-12T14:28:19;100091.75;;;-5.12;75.48
67517;BME280;54359;59.124;37.910;2023-02-12T14:36:41;100090.31;;;-5.64;75.60
67517;BME280;54359;59.124;37.910;2023-02-12T14:41:47;100091.19;;;-5.86;74.79
67517;BME280;54359;59.124;37.910;2023-02-12T14:49:20;100090.97;;;-6.11;75.16
67517;BME280;54359;59.124;37.910;2023-02-12T14:57:29;100089.41;;;-6.31;75.04
67517;BME280;54359;59.124;37.910;2023-02-12T15:02:54;100084.44;;;-6.52;75.68
67517;BME280;54359;59.124;37.910;2023-02-12T15:05:31;100079.47;;;-6.62;74.64
67517;BME280;54359;59.124;37.910;2023-02-12T15:08:42;100089.97;;;-6.66;74.85
67517;BME280;54359;59.124;37.910;2023-02-12T15:12:02;100077.88;;;-6.82;75.80
67517;BME280;54359;59.124;37.910;2023-02-12T15:14:34;100092.50;;;-6.86;76.10
67517;BME280;54359;59.124;37.910;2023-02-12T15:17:10;100088.13;;;-6.99;75.13
67517;BME280;54359;59.124;37.910;2023-02-12T15:22:33;100109.72;;;-7.10;74.94
67517;BME280;54359;59.124;37.910;2023-02-12T15:25:25;100123.47;;;-7.15;75.02
67517;BME280;54359;59.124;37.910;2023-02-12T15:27:58;100104.22;;;-7.26;75.98
67517;BME280;54359;59.124;37.910;2023-02-12T15:30:30;100109.84;;;-7.29;76.15
67517;BME280;54359;59.124;37.910;2023-02-12T15:33:03;100101.47;;;-7.30;76.05
67517;BME280;54359;59.124;37.910;2023-02-12T15:35:36;100084.13;;;-7.38;75.57
67517;BME280;54359;59.124;37.910;2023-02-12T15:38:05;100098.97;;;-7.30;75.40
67517;BME280;54359;59.124;37.910;2023-02-12T15:40:33;100091.22;;;-7.33;75.24
67517;BME280;54359;59.124;37.910;2023-02-12T15:43:15;100093.00;;;-7.32;75.40
67517;BME280;54359;59.124;37.910;2023-02-12T15:45:49;100092.22;;;-7.31;75.77
67517;BME280;54359;59.124;37.910;2023-02-12T15:48:21;100092.22;;;-7.31;75.59